Airport View

Enter AWOS ICAO identifier for current METAR.

ex. KFNL

KHRI 191853Z AUTO 25014G22KT 10SM CLR 22/03 A3005 RMK AO2 SLP172 T02220033

19 Jun 2019 19:49

Frequency: 135.225

Phone: 541-567-8580

Other Area AWOS: KPDT - KPSC - KRLD - KMEH

TAF KPDT 191735Z 1918/2018 28027G35KT P6SM SCT200 FM200900 26019G27KT P6SM SCT060 BKN090